sensor_id;sensor_type;location;lat;lon;timestamp;pressure;altitude;pressure_sealevel;temperature;humidity
39363;BME280;25088;43.238;23.110;2024-02-26T00:00:31;95947.66;;;11.42;69.13
39363;BME280;25088;43.238;23.110;2024-02-26T00:02:57;95948.75;;;11.46;69.00
39363;BME280;25088;43.238;23.110;2024-02-26T00:05:23;95956.41;;;11.54;68.74
39363;BME280;25088;43.238;23.110;2024-02-26T00:07:48;95939.19;;;11.48;68.04
39363;BME280;25088;43.238;23.110;2024-02-26T00:10:14;95924.69;;;11.48;67.64
39363;BME280;25088;43.238;23.110;2024-02-26T00:12:40;95926.34;;;11.33;69.15
39363;BME280;25088;43.238;23.110;2024-02-26T00:15:06;95902.06;;;11.06;69.87
39363;BME280;25088;43.238;23.110;2024-02-26T00:17:32;95937.28;;;11.18;70.77
39363;BME280;25088;43.238;23.110;2024-02-26T00:19:58;95935.38;;;11.08;71.41
39363;BME280;25088;43.238;23.110;2024-02-26T00:22:23;95931.84;;;11.08;71.30
39363;BME280;25088;43.238;23.110;2024-02-26T00:24:49;95911.09;;;10.97;70.66
39363;BME280;25088;43.238;23.110;2024-02-26T00:27:14;95933.47;;;10.99;71.63
39363;BME280;25088;43.238;23.110;2024-02-26T00:29:39;95926.38;;;10.98;71.18
39363;BME280;25088;43.238;23.110;2024-02-26T00:32:05;95922.00;;;11.07;70.05
39363;BME280;25088;43.238;23.110;2024-02-26T00:34:31;95925.25;;;11.45;68.08
39363;BME280;25088;43.238;23.110;2024-02-26T00:36:56;95922.78;;;11.38;68.51
39363;BME280;25088;43.238;23.110;2024-02-26T00:39:22;95931.28;;;11.26;69.55
39363;BME280;25088;43.238;23.110;2024-02-26T00:41:47;95916.53;;;11.02;70.06
39363;BME280;25088;43.238;23.110;2024-02-26T00:44:13;95920.38;;;10.91;71.21
39363;BME280;25088;43.238;23.110;2024-02-26T00:46:38;95934.56;;;10.87;71.54
39363;BME280;25088;43.238;23.110;2024-02-26T00:49:04;95934.03;;;10.75;72.13
39363;BME280;25088;43.238;23.110;2024-02-26T00:51:30;95923.31;;;10.53;73.24
39363;BME280;25088;43.238;23.110;2024-02-26T00:53:55;95920.81;;;10.31;74.99
39363;BME280;25088;43.238;23.110;2024-02-26T00:56:21;95926.00;;;10.28;75.20
39363;BME280;25088;43.238;23.110;2024-02-26T00:58:47;95914.00;;;10.29;75.52
39363;BME280;25088;43.238;23.110;2024-02-26T01:01:12;95923.84;;;10.35;75.29
39363;BME280;25088;43.238;23.110;2024-02-26T01:03:38;95932.84;;;10.30;75.60
39363;BME280;25088;43.238;23.110;2024-02-26T01:06:04;95910.44;;;10.28;75.09
39363;BME280;25088;43.238;23.110;2024-02-26T01:08:29;95902.22;;;10.23;74.32
39363;BME280;25088;43.238;23.110;2024-02-26T01:10:55;95915.66;;;10.40;74.24
39363;BME280;25088;43.238;23.110;2024-02-26T01:13:20;95918.94;;;10.42;73.78
39363;BME280;25088;43.238;23.110;2024-02-26T01:15:46;95914.91;;;10.60;73.28
39363;BME280;25088;43.238;23.110;2024-02-26T01:18:11;95915.41;;;10.57;73.48
39363;BME280;25088;43.238;23.110;2024-02-26T01:20:37;95911.84;;;10.36;74.35
39363;BME280;25088;43.238;23.110;2024-02-26T01:23:03;95912.09;;;10.24;75.85
39363;BME280;25088;43.238;23.110;2024-02-26T01:25:28;95917.75;;;10.23;75.72
39363;BME280;25088;43.238;23.110;2024-02-26T01:27:54;95927.13;;;10.37;74.47
39363;BME280;25088;43.238;23.110;2024-02-26T01:30:19;95920.56;;;10.33;75.40
39363;BME280;25088;43.238;23.110;2024-02-26T01:32:45;95904.13;;;10.23;75.21
39363;BME280;25088;43.238;23.110;2024-02-26T01:35:11;95921.16;;;10.45;74.38
39363;BME280;25088;43.238;23.110;2024-02-26T01:37:37;95913.78;;;10.51;73.83
39363;BME280;25088;43.238;23.110;2024-02-26T01:40:03;95918.38;;;10.30;74.90
39363;BME280;25088;43.238;23.110;2024-02-26T01:42:38;95902.75;;;10.15;74.74
39363;BME280;25088;43.238;23.110;2024-02-26T01:45:04;95895.09;;;10.12;75.78
39363;BME280;25088;43.238;23.110;2024-02-26T01:47:31;95908.75;;;10.22;74.99
39363;BME280;25088;43.238;23.110;2024-02-26T01:49:57;95914.47;;;10.10;76.41
39363;BME280;25088;43.238;23.110;2024-02-26T01:52:22;95896.94;;;9.91;76.78
39363;BME280;25088;43.238;23.110;2024-02-26T01:54:48;95896.69;;;9.98;76.73
39363;BME280;25088;43.238;23.110;2024-02-26T01:57:16;95899.75;;;10.17;75.92
39363;BME280;25088;43.238;23.110;2024-02-26T01:59:42;95910.19;;;10.30;75.15
39363;BME280;25088;43.238;23.110;2024-02-26T02:02:08;95908.75;;;10.22;75.60
39363;BME280;25088;43.238;23.110;2024-02-26T02:04:36;95899.75;;;10.17;75.10
39363;BME280;25088;43.238;23.110;2024-02-26T02:07:02;95904.47;;;10.42;74.50
39363;BME280;25088;43.238;23.110;2024-02-26T02:09:28;95905.69;;;10.03;75.72
39363;BME280;25088;43.238;23.110;2024-02-26T02:11:54;95905.66;;;9.93;76.33
39363;BME280;25088;43.238;23.110;2024-02-26T02:14:20;95910.28;;;9.93;76.88
39363;BME280;25088;43.238;23.110;2024-02-26T02:16:46;95898.91;;;10.11;76.16
39363;BME280;25088;43.238;23.110;2024-02-26T02:19:12;95891.84;;;10.15;75.27
39363;BME280;25088;43.238;23.110;2024-02-26T02:21:37;95888.53;;;10.08;75.34
39363;BME280;25088;43.238;23.110;2024-02-26T02:24:03;95901.09;;;10.14;75.71
39363;BME280;25088;43.238;23.110;2024-02-26T02:26:28;95901.03;;;9.99;76.48
39363;BME280;25088;43.238;23.110;2024-02-26T02:28:54;95903.22;;;9.97;76.54
39363;BME280;25088;43.238;23.110;2024-02-26T02:31:19;95884.69;;;9.99;75.74
39363;BME280;25088;43.238;23.110;2024-02-26T02:33:45;95901.19;;;10.24;75.59
39363;BME280;25088;43.238;23.110;2024-02-26T02:36:10;95893.44;;;10.01;76.87
39363;BME280;25088;43.238;23.110;2024-02-26T02:38:37;95900.63;;;10.32;75.13
39363;BME280;25088;43.238;23.110;2024-02-26T02:41:03;95901.41;;;10.23;75.36
39363;BME280;25088;43.238;23.110;2024-02-26T02:43:29;95907.41;;;10.15;75.86
39363;BME280;25088;43.238;23.110;2024-02-26T02:45:54;95910.66;;;10.17;75.93
39363;BME280;25088;43.238;23.110;2024-02-26T02:48:19;95912.53;;;10.06;76.61
39363;BME280;25088;43.238;23.110;2024-02-26T02:50:45;95916.03;;;9.91;77.13
39363;BME280;25088;43.238;23.110;2024-02-26T02:53:10;95899.38;;;9.93;77.23
39363;BME280;25088;43.238;23.110;2024-02-26T02:55:36;95912.56;;;10.11;76.22
39363;BME280;25088;43.238;23.110;2024-02-26T02:58:01;95901.09;;;10.14;75.79
39363;BME280;25088;43.238;23.110;2024-02-26T03:00:27;95906.09;;;10.27;74.37
39363;BME280;25088;43.238;23.110;2024-02-26T03:02:52;95905.00;;;10.39;73.85
39363;BME280;25088;43.238;23.110;2024-02-26T03:05:18;95890.03;;;10.56;72.88
39363;BME280;25088;43.238;23.110;2024-02-26T03:07:43;95909.97;;;10.67;71.87
39363;BME280;25088;43.238;23.110;2024-02-26T03:10:09;95909.44;;;10.75;71.40
39363;BME280;25088;43.238;23.110;2024-02-26T03:12:34;95902.59;;;10.78;72.10
39363;BME280;25088;43.238;23.110;2024-02-26T03:15:01;95904.81;;;10.86;70.88
39363;BME280;25088;43.238;23.110;2024-02-26T03:17:29;95888.13;;;10.72;70.48
39363;BME280;25088;43.238;23.110;2024-02-26T03:19:55;95905.34;;;10.88;70.93
39363;BME280;25088;43.238;23.110;2024-02-26T03:22:20;95892.50;;;10.83;71.07
39363;BME280;25088;43.238;23.110;2024-02-26T03:24:46;95895.50;;;10.87;70.52
39363;BME280;25088;43.238;23.110;2024-02-26T03:27:12;95898.53;;;10.75;71.55
39363;BME280;25088;43.238;23.110;2024-02-26T03:29:38;95899.31;;;10.55;73.29
39363;BME280;25088;43.238;23.110;2024-02-26T03:32:04;95888.94;;;10.47;72.95
39363;BME280;25088;43.238;23.110;2024-02-26T03:34:30;95880.22;;;10.45;73.37
39363;BME280;25088;43.238;23.110;2024-02-26T03:36:56;95883.47;;;10.47;73.06
39363;BME280;25088;43.238;23.110;2024-02-26T03:39:22;95883.19;;;10.54;72.88
39363;BME280;25088;43.238;23.110;2024-02-26T03:41:48;95882.94;;;10.55;72.35
39363;BME280;25088;43.238;23.110;2024-02-26T03:44:14;95849.88;;;10.26;72.59
39363;BME280;25088;43.238;23.110;2024-02-26T03:46:40;95872.84;;;10.46;71.36
39363;BME280;25088;43.238;23.110;2024-02-26T03:49:08;95884.59;;;10.77;70.33
39363;BME280;25088;43.238;23.110;2024-02-26T03:51:33;95893.59;;;10.82;70.86
39363;BME280;25088;43.238;23.110;2024-02-26T03:53:59;95879.66;;;10.58;70.95
39363;BME280;25088;43.238;23.110;2024-02-26T03:56:25;95905.09;;;10.69;70.81
39363;BME280;25088;43.238;23.110;2024-02-26T03:58:51;95909.44;;;10.80;70.27
39363;BME280;25088;43.238;23.110;2024-02-26T04:01:17;95910.56;;;10.90;69.11
39363;BME280;25088;43.238;23.110;2024-02-26T04:03:42;95917.06;;;10.99;68.50
39363;BME280;25088;43.238;23.110;2024-02-26T04:06:09;95908.34;;;10.92;68.07
39363;BME280;25088;43.238;23.110;2024-02-26T04:08:36;95910.00;;;10.87;69.05
39363;BME280;25088;43.238;23.110;2024-02-26T04:11:01;95893.59;;;10.62;70.02
39363;BME280;25088;43.238;23.110;2024-02-26T04:13:28;95911.63;;;10.83;69.11
39363;BME280;25088;43.238;23.110;2024-02-26T04:15:53;95914.75;;;10.19;72.43
39363;BME280;25088;43.238;23.110;2024-02-26T04:18:19;95885.00;;;10.07;71.63
39363;BME280;25088;43.238;23.110;2024-02-26T04:20:44;95890.44;;;10.07;72.86
39363;BME280;25088;43.238;23.110;2024-02-26T04:23:09;95915.81;;;10.13;73.27
39363;BME280;25088;43.238;23.110;2024-02-26T04:25:35;95911.38;;;9.92;73.52
39363;BME280;25088;43.238;23.110;2024-02-26T04:28:00;95916.38;;;10.10;73.19
39363;BME280;25088;43.238;23.110;2024-02-26T04:30:26;95904.44;;;10.26;72.59
39363;BME280;25088;43.238;23.110;2024-02-26T04:32:51;95913.16;;;10.28;71.87
39363;BME280;25088;43.238;23.110;2024-02-26T04:35:17;95896.28;;;10.31;71.54
39363;BME280;25088;43.238;23.110;2024-02-26T04:37:42;95907.22;;;10.42;70.83
39363;BME280;25088;43.238;23.110;2024-02-26T04:40:08;95912.41;;;10.48;70.96
39363;BME280;25088;43.238;23.110;2024-02-26T04:42:33;95918.69;;;10.59;69.77
39363;BME280;25088;43.238;23.110;2024-02-26T04:44:59;95921.69;;;10.52;70.52
39363;BME280;25088;43.238;23.110;2024-02-26T04:47:24;95917.63;;;10.60;69.97
39363;BME280;25088;43.238;23.110;2024-02-26T04:49:50;95913.50;;;10.57;69.95
39363;BME280;25088;43.238;23.110;2024-02-26T04:52:16;95929.91;;;10.68;70.02
39363;BME280;25088;43.238;23.110;2024-02-26T04:54:41;95935.91;;;10.54;70.01
39363;BME280;25088;43.238;23.110;2024-02-26T04:57:07;95941.91;;;10.61;69.69
39363;BME280;25088;43.238;23.110;2024-02-26T04:59:32;95929.59;;;10.59;69.06
39363;BME280;25088;43.238;23.110;2024-02-26T05:01:58;95934.53;;;10.72;69.65
39363;BME280;25088;43.238;23.110;2024-02-26T05:04:23;95935.63;;;10.56;70.15
39363;BME280;25088;43.238;23.110;2024-02-26T05:06:48;95932.31;;;10.44;70.11
39363;BME280;25088;43.238;23.110;2024-02-26T05:09:14;95946.53;;;10.46;70.42
39363;BME280;25088;43.238;23.110;2024-02-26T05:11:39;95939.94;;;10.42;69.71
39363;BME280;25088;43.238;23.110;2024-02-26T05:14:05;95957.97;;;10.43;70.76
39363;BME280;25088;43.238;23.110;2024-02-26T05:16:31;95960.13;;;10.35;71.09
39363;BME280;25088;43.238;23.110;2024-02-26T05:18:57;95959.47;;;10.18;70.97
39363;BME280;25088;43.238;23.110;2024-02-26T05:21:22;95960.00;;;10.05;72.20
39363;BME280;25088;43.238;23.110;2024-02-26T05:23:48;95922.19;;;9.66;73.28
39363;BME280;25088;43.238;23.110;2024-02-26T05:26:22;95952.78;;;9.83;74.02
39363;BME280;25088;43.238;23.110;2024-02-26T05:28:48;95953.06;;;9.82;74.31
39363;BME280;25088;43.238;23.110;2024-02-26T05:31:14;95945.41;;;9.84;74.64
39363;BME280;25088;43.238;23.110;2024-02-26T05:33:39;95963.72;;;9.89;75.13
39363;BME280;25088;43.238;23.110;2024-02-26T05:36:05;95953.91;;;9.88;74.61
39363;BME280;25088;43.238;23.110;2024-02-26T05:38:31;95979.03;;;9.95;74.85
39363;BME280;25088;43.238;23.110;2024-02-26T05:41:00;95973.03;;;9.98;74.49
39363;BME280;25088;43.238;23.110;2024-02-26T05:43:26;95960.19;;;9.93;75.01
39363;BME280;25088;43.238;23.110;2024-02-26T05:45:52;95956.88;;;9.81;75.11
39363;BME280;25088;43.238;23.110;2024-02-26T05:48:18;95976.84;;;9.97;75.28
39363;BME280;25088;43.238;23.110;2024-02-26T05:50:47;95973.06;;;10.03;74.56
39363;BME280;25088;43.238;23.110;2024-02-26T05:53:13;95974.97;;;10.02;73.86
39363;BME280;25088;43.238;23.110;2024-02-26T05:55:38;95974.72;;;10.09;73.23
39363;BME280;25088;43.238;23.110;2024-02-26T05:58:04;95983.78;;;10.20;74.00
39363;BME280;25088;43.238;23.110;2024-02-26T06:00:29;95993.94;;;10.24;72.87
39363;BME280;25088;43.238;23.110;2024-02-26T06:02:55;95990.13;;;10.30;72.79
39363;BME280;25088;43.238;23.110;2024-02-26T06:05:21;95984.91;;;10.24;72.60
39363;BME280;25088;43.238;23.110;2024-02-26T06:07:46;95983.78;;;10.20;73.56
39363;BME280;25088;43.238;23.110;2024-02-26T06:10:11;95995.06;;;10.39;72.57
39363;BME280;25088;43.238;23.110;2024-02-26T06:12:39;95980.06;;;10.36;73.04
39363;BME280;25088;43.238;23.110;2024-02-26T06:15:05;95997.59;;;10.60;73.91
39363;BME280;25088;43.238;23.110;2024-02-26T06:17:31;95997.84;;;10.64;72.04
39363;BME280;25088;43.238;23.110;2024-02-26T06:19:56;95986.41;;;10.67;71.32
39363;BME280;25088;43.238;23.110;2024-02-26T06:22:24;95991.63;;;10.79;70.51
39363;BME280;25088;43.238;23.110;2024-02-26T06:24:49;95999.56;;;10.85;69.95
39363;BME280;25088;43.238;23.110;2024-02-26T06:27:15;95982.06;;;10.81;71.28
39363;BME280;25088;43.238;23.110;2024-02-26T06:29:40;95992.22;;;11.01;73.83
39363;BME280;25088;43.238;23.110;2024-02-26T06:32:06;95995.75;;;11.12;72.53
39363;BME280;25088;43.238;23.110;2024-02-26T06:34:31;96007.78;;;11.01;72.15
39363;BME280;25088;43.238;23.110;2024-02-26T06:36:57;96017.63;;;11.07;71.37
39363;BME280;25088;43.238;23.110;2024-02-26T06:39:22;96010.50;;;11.06;72.75
39363;BME280;25088;43.238;23.110;2024-02-26T06:41:48;96008.59;;;10.96;74.12
39363;BME280;25088;43.238;23.110;2024-02-26T06:44:14;96025.50;;;10.98;75.34
39363;BME280;25088;43.238;23.110;2024-02-26T06:46:39;96015.97;;;10.96;76.29
39363;BME280;25088;43.238;23.110;2024-02-26T06:49:05;96029.34;;;11.02;77.78
39363;BME280;25088;43.238;23.110;2024-02-26T06:51:30;96022.78;;;10.98;77.89
39363;BME280;25088;43.238;23.110;2024-02-26T06:53:56;96026.41;;;11.29;77.07
39363;BME280;25088;43.238;23.110;2024-02-26T06:56:21;96029.38;;;11.43;76.08
39363;BME280;25088;43.238;23.110;2024-02-26T06:58:47;96006.69;;;11.48;75.02
39363;BME280;25088;43.238;23.110;2024-02-26T07:01:12;96011.91;;;11.54;75.09
39363;BME280;25088;43.238;23.110;2024-02-26T07:03:40;96038.41;;;11.74;74.83
39363;BME280;25088;43.238;23.110;2024-02-26T07:06:05;96023.66;;;11.60;74.37
39363;BME280;25088;43.238;23.110;2024-02-26T07:08:32;96029.66;;;11.42;75.29
39363;BME280;25088;43.238;23.110;2024-02-26T07:10:57;96027.75;;;11.27;77.03
39363;BME280;25088;43.238;23.110;2024-02-26T07:13:22;96038.69;;;11.52;75.37
39363;BME280;25088;43.238;23.110;2024-02-26T07:15:48;96040.06;;;11.55;73.33
39363;BME280;25088;43.238;23.110;2024-02-26T07:18:14;96039.50;;;11.37;74.32
39363;BME280;25088;43.238;23.110;2024-02-26T07:20:39;96032.66;;;11.25;74.54
39363;BME280;25088;43.238;23.110;2024-02-26T07:23:05;96016.28;;;11.35;73.41
39363;BME280;25088;43.238;23.110;2024-02-26T07:25:32;96043.31;;;11.31;74.49
39363;BME280;25088;43.238;23.110;2024-02-26T07:27:57;96027.22;;;11.25;75.00
39363;BME280;25088;43.238;23.110;2024-02-26T07:30:22;96037.59;;;11.43;73.86
39363;BME280;25088;43.238;23.110;2024-02-26T07:32:49;96033.50;;;11.41;72.11
39363;BME280;25088;43.238;23.110;2024-02-26T07:35:15;96029.94;;;11.55;71.29
39363;BME280;25088;43.238;23.110;2024-02-26T07:37:41;96034.84;;;11.63;71.97
39363;BME280;25088;43.238;23.110;2024-02-26T07:40:07;96035.41;;;11.91;70.17
39363;BME280;25088;43.238;23.110;2024-02-26T07:42:33;96039.47;;;12.14;69.29
39363;BME280;25088;43.238;23.110;2024-02-26T07:44:58;96047.84;;;12.48;68.14
39363;BME280;25088;43.238;23.110;2024-02-26T07:47:24;96047.44;;;12.80;65.58
39363;BME280;25088;43.238;23.110;2024-02-26T07:49:50;96042.63;;;13.06;64.17
39363;BME280;25088;43.238;23.110;2024-02-26T07:52:15;96037.34;;;13.25;64.09
39363;BME280;25088;43.238;23.110;2024-02-26T07:54:41;96032.84;;;13.39;63.65
39363;BME280;25088;43.238;23.110;2024-02-26T07:57:06;96035.44;;;13.60;63.61
39363;BME280;25088;43.238;23.110;2024-02-26T07:59:32;96021.63;;;13.70;64.78
39363;BME280;25088;43.238;23.110;2024-02-26T08:01:58;95996.88;;;13.75;64.62
39363;BME280;25088;43.238;23.110;2024-02-26T08:04:24;96012.03;;;13.96;63.91
39363;BME280;25088;43.238;23.110;2024-02-26T08:06:51;96022.34;;;14.10;63.26
39363;BME280;25088;43.238;23.110;2024-02-26T08:09:17;96015.34;;;14.22;62.37
39363;BME280;25088;43.238;23.110;2024-02-26T08:11:42;96023.53;;;14.28;64.82
39363;BME280;25088;43.238;23.110;2024-02-26T08:14:08;96010.13;;;14.21;63.94
39363;BME280;25088;43.238;23.110;2024-02-26T08:16:33;96007.38;;;14.21;64.63
39363;BME280;25088;43.238;23.110;2024-02-26T08:18:58;96025.41;;;14.32;64.32
39363;BME280;25088;43.238;23.110;2024-02-26T08:21:24;96021.47;;;14.38;64.13
39363;BME280;25088;43.238;23.110;2024-02-26T08:23:49;96019.97;;;14.27;64.10
39363;BME280;25088;43.238;23.110;2024-02-26T08:26:15;95992.91;;;14.15;64.39
39363;BME280;25088;43.238;23.110;2024-02-26T08:28:40;96017.63;;;14.39;64.04
39363;BME280;25088;43.238;23.110;2024-02-26T08:31:06;96020.78;;;14.52;63.26
39363;BME280;25088;43.238;23.110;2024-02-26T08:33:32;96025.88;;;14.63;63.11
39363;BME280;25088;43.238;23.110;2024-02-26T08:35:59;96026.94;;;14.67;65.09
39363;BME280;25088;43.238;23.110;2024-02-26T08:38:24;96020.97;;;14.60;63.74
39363;BME280;25088;43.238;23.110;2024-02-26T08:40:50;96024.97;;;14.49;63.42
39363;BME280;25088;43.238;23.110;2024-02-26T08:43:15;96037.91;;;14.43;63.92
39363;BME280;25088;43.238;23.110;2024-02-26T08:45:41;96033.41;;;14.29;64.98
39363;BME280;25088;43.238;23.110;2024-02-26T08:48:07;96039.19;;;14.27;66.21
39363;BME280;25088;43.238;23.110;2024-02-26T08:50:32;96035.44;;;14.18;66.09
39363;BME280;25088;43.238;23.110;2024-02-26T08:52:58;96043.19;;;14.11;66.45
39363;BME280;25088;43.238;23.110;2024-02-26T08:55:26;96046.44;;;13.89;66.92
39363;BME280;25088;43.238;23.110;2024-02-26T08:57:51;96037.53;;;13.97;66.79
39363;BME280;25088;43.238;23.110;2024-02-26T09:00:17;96052.22;;;13.87;67.65
39363;BME280;25088;43.238;23.110;2024-02-26T09:02:45;96053.69;;;14.04;66.95
39363;BME280;25088;43.238;23.110;2024-02-26T09:05:11;96038.84;;;14.05;65.60
39363;BME280;25088;43.238;23.110;2024-02-26T09:07:36;96041.81;;;14.13;65.80
39363;BME280;25088;43.238;23.110;2024-02-26T09:10:02;96017.38;;;14.12;65.72
39363;BME280;25088;43.238;23.110;2024-02-26T09:12:27;96032.03;;;14.26;65.25
39363;BME280;25088;43.238;23.110;2024-02-26T09:14:53;96032.44;;;14.14;65.40
39363;BME280;25088;43.238;23.110;2024-02-26T09:17:20;96004.81;;;14.06;66.61
39363;BME280;25088;43.238;23.110;2024-02-26T09:19:46;96010.53;;;14.09;66.91
39363;BME280;25088;43.238;23.110;2024-02-26T09:22:11;96031.22;;;14.26;65.93
39363;BME280;25088;43.238;23.110;2024-02-26T09:24:37;96027.03;;;14.33;65.04
39363;BME280;25088;43.238;23.110;2024-02-26T09:27:02;96029.53;;;14.30;64.20
39363;BME280;25088;43.238;23.110;2024-02-26T09:29:28;96034.63;;;14.17;65.62
39363;BME280;25088;43.238;23.110;2024-02-26T09:31:54;96005.75;;;14.20;63.62
39363;BME280;25088;43.238;23.110;2024-02-26T09:34:19;96036.41;;;14.56;63.88
39363;BME280;25088;43.238;23.110;2024-02-26T09:36:45;96033.00;;;14.64;63.68
39363;BME280;25088;43.238;23.110;2024-02-26T09:39:10;96025.06;;;14.63;63.70
39363;BME280;25088;43.238;23.110;2024-02-26T09:41:37;96015.28;;;14.52;63.09
39363;BME280;25088;43.238;23.110;2024-02-26T09:44:04;96028.13;;;14.80;63.10
39363;BME280;25088;43.238;23.110;2024-02-26T09:46:30;96029.75;;;14.81;63.36
39363;BME280;25088;43.238;23.110;2024-02-26T09:48:56;96024.41;;;14.71;64.54
39363;BME280;25088;43.238;23.110;2024-02-26T09:51:24;96026.75;;;14.83;63.37
39363;BME280;25088;43.238;23.110;2024-02-26T09:53:53;96027.78;;;14.87;63.62
39363;BME280;25088;43.238;23.110;2024-02-26T09:56:21;96034.78;;;14.98;64.37
39363;BME280;25088;43.238;23.110;2024-02-26T09:58:47;96029.78;;;15.00;63.67
39363;BME280;25088;43.238;23.110;2024-02-26T10:01:18;96036.03;;;15.06;62.51
39363;BME280;25088;43.238;23.110;2024-02-26T10:03:43;96021.78;;;15.22;61.95
39363;BME280;25088;43.238;23.110;2024-02-26T10:06:11;96018.41;;;15.25;61.46
39363;BME280;25088;43.238;23.110;2024-02-26T10:08:37;96005.53;;;15.59;61.16
39363;BME280;25088;43.238;23.110;2024-02-26T10:11:11;96002.66;;;15.69;60.03
39363;BME280;25088;43.238;23.110;2024-02-26T10:13:38;96015.50;;;15.73;59.10
39363;BME280;25088;43.238;23.110;2024-02-26T10:16:04;96007.97;;;15.79;59.17
39363;BME280;25088;43.238;23.110;2024-02-26T10:18:51;95998.59;;;15.80;58.81
39363;BME280;25088;43.238;23.110;2024-02-26T10:21:21;95989.06;;;16.05;58.53
39363;BME280;25088;43.238;23.110;2024-02-26T10:23:47;95984.78;;;16.13;57.54
39363;BME280;25088;43.238;23.110;2024-02-26T10:26:14;95987.44;;;16.18;57.47
39363;BME280;25088;43.238;23.110;2024-02-26T10:28:42;95988.38;;;16.27;57.03
39363;BME280;25088;43.238;23.110;2024-02-26T10:31:08;95988.47;;;16.36;56.75
39363;BME280;25088;43.238;23.110;2024-02-26T10:33:38;95983.16;;;16.39;56.56
39363;BME280;25088;43.238;23.110;2024-02-26T10:36:07;95973.66;;;16.45;56.19
39363;BME280;25088;43.238;23.110;2024-02-26T10:38:33;95975.53;;;16.77;55.06
39363;BME280;25088;43.238;23.110;2024-02-26T10:41:04;95962.19;;;17.07;54.87
39363;BME280;25088;43.238;23.110;2024-02-26T10:43:30;95966.38;;;17.41;54.07
39363;BME280;25088;43.238;23.110;2024-02-26T10:45:56;95969.97;;;17.72;53.36
39363;BME280;25088;43.238;23.110;2024-02-26T10:48:21;95961.78;;;17.81;52.81
39363;BME280;25088;43.238;23.110;2024-02-26T10:50:47;95962.88;;;18.02;52.18
39363;BME280;25088;43.238;23.110;2024-02-26T10:53:16;95952.69;;;18.12;51.67
39363;BME280;25088;43.238;23.110;2024-02-26T10:55:47;95957.88;;;18.13;50.93
39363;BME280;25088;43.238;23.110;2024-02-26T10:58:14;95929.53;;;17.90;52.19
39363;BME280;25088;43.238;23.110;2024-02-26T11:00:40;95958.50;;;18.01;51.71
39363;BME280;25088;43.238;23.110;2024-02-26T11:03:06;95956.94;;;18.18;52.17
39363;BME280;25088;43.238;23.110;2024-02-26T11:05:35;95951.63;;;18.30;51.26
39363;BME280;25088;43.238;23.110;2024-02-26T11:08:02;95944.72;;;18.58;50.98
39363;BME280;25088;43.238;23.110;2024-02-26T11:10:29;95945.66;;;18.85;49.82
39363;BME280;25088;43.238;23.110;2024-02-26T11:12:56;95952.44;;;18.79;50.09
39363;BME280;25088;43.238;23.110;2024-02-26T11:15:25;95936.56;;;19.10;49.89
39363;BME280;25088;43.238;23.110;2024-02-26T11:17:52;95932.31;;;19.13;49.26
39363;BME280;25088;43.238;23.110;2024-02-26T11:20:19;95938.00;;;19.17;48.70
39363;BME280;25088;43.238;23.110;2024-02-26T11:22:45;95942.25;;;19.05;48.75
39363;BME280;25088;43.238;23.110;2024-02-26T11:25:10;95939.47;;;18.97;49.70
39363;BME280;25088;43.238;23.110;2024-02-26T11:27:42;95924.31;;;19.29;48.78
39363;BME280;25088;43.238;23.110;2024-02-26T11:30:12;95931.16;;;19.49;48.03
39363;BME280;25088;43.238;23.110;2024-02-26T11:32:38;95931.66;;;19.42;47.74
39363;BME280;25088;43.238;23.110;2024-02-26T11:35:05;95925.78;;;19.09;48.98
39363;BME280;25088;43.238;23.110;2024-02-26T11:37:31;95933.25;;;18.82;49.26
39363;BME280;25088;43.238;23.110;2024-02-26T11:39:59;95942.91;;;18.54;49.76
39363;BME280;25088;43.238;23.110;2024-02-26T11:42:25;95938.50;;;18.36;50.44
39363;BME280;25088;43.238;23.110;2024-02-26T11:44:51;95939.25;;;18.27;50.81
39363;BME280;25088;43.238;23.110;2024-02-26T11:47:21;95946.66;;;18.09;51.65
39363;BME280;25088;43.238;23.110;2024-02-26T11:49:47;95932.91;;;17.87;52.10
39363;BME280;25088;43.238;23.110;2024-02-26T11:52:13;95936.03;;;17.94;51.80
39363;BME280;25088;43.238;23.110;2024-02-26T11:54:53;95946.72;;;17.87;52.25
39363;BME280;25088;43.238;23.110;2024-02-26T11:59:51;95942.16;;;17.38;52.76
39363;BME280;25088;43.238;23.110;2024-02-26T12:02:39;95946.47;;;17.52;53.13
39363;BME280;25088;43.238;23.110;2024-02-26T12:05:16;95947.41;;;17.48;53.44
39363;BME280;25088;43.238;23.110;2024-02-26T12:07:55;95953.53;;;17.45;52.71
39363;BME280;25088;43.238;23.110;2024-02-26T12:10:31;95960.47;;;16.97;53.07
39363;BME280;25088;43.238;23.110;2024-02-26T12:13:05;95945.34;;;16.95;53.45
39363;BME280;25088;43.238;23.110;2024-02-26T12:15:32;95959.84;;;17.00;53.46
39363;BME280;25088;43.238;23.110;2024-02-26T12:18:01;95952.97;;;17.12;53.20
39363;BME280;25088;43.238;23.110;2024-02-26T12:20:27;95941.53;;;17.04;52.53
39363;BME280;25088;43.238;23.110;2024-02-26T12:22:53;95956.56;;;17.12;52.05
39363;BME280;25088;43.238;23.110;2024-02-26T12:25:25;95940.31;;;17.11;52.23
39363;BME280;25088;43.238;23.110;2024-02-26T12:27:52;95941.91;;;16.89;52.68
39363;BME280;25088;43.238;23.110;2024-02-26T12:30:18;95946.22;;;17.18;51.63
39363;BME280;25088;43.238;23.110;2024-02-26T12:32:45;95957.28;;;17.04;51.71
39363;BME280;25088;43.238;23.110;2024-02-26T12:35:11;95949.94;;;16.99;52.17
39363;BME280;25088;43.238;23.110;2024-02-26T12:37:38;95952.16;;;17.11;52.23
39363;BME280;25088;43.238;23.110;2024-02-26T12:40:08;95943.00;;;17.02;52.60
39363;BME280;25088;43.238;23.110;2024-02-26T12:42:35;95950.03;;;17.08;53.12
39363;BME280;25088;43.238;23.110;2024-02-26T12:45:12;95952.97;;;17.12;53.12
39363;BME280;25088;43.238;23.110;2024-02-26T12:47:44;95954.94;;;17.11;53.02